Time;durP1;ratioP1;P1;durP2;ratioP2;P2;SDS_P1;SDS_P2;PMS_P1;PMS_P2;Temp;Humidity;BMP_temperature;BMP_pressure;BME280_temperature;BME280_humidity;BME280_pressure;Samples;Min_cycle;Max_cycle;Signal;HPM_P1;HPM_P2
2022/10/08 00:03:47;;;;;;;;;;;20.80;49.20;;;;;;8362941;28;20023;-44
2022/10/08 00:07:47;;;;;;;;;;;20.80;49.20;;;;;;8363517;28;20381;-43
2022/10/08 00:11:48;;;;;;;;;;;20.80;49.20;;;;;;8363166;28;19913;-45
2022/10/08 00:15:49;;;;;;;;;;;20.80;49.80;;;;;;8363566;28;19917;-46
2022/10/08 00:19:49;;;;;;;;;;;20.80;49.20;;;;;;8363151;28;19917;-45
2022/10/08 00:23:50;;;;;;;;;;;20.80;49.20;;;;;;8362527;28;19932;-45
2022/10/08 00:27:51;;;;;;;;;;;20.80;49.30;;;;;;8363423;28;19916;-45
2022/10/08 00:31:51;;;;;;;;;;;20.80;49.30;;;;;;8363322;28;20055;-45
2022/10/08 00:35:53;;;;;;;;;;;20.70;49.20;;;;;;8362529;28;20269;-45
2022/10/08 00:39:53;;;;;;;;;;;20.70;49.20;;;;;;8363047;28;20011;-44
2022/10/08 00:43:55;;;;;;;;;;;20.70;49.20;;;;;;8362763;28;19928;-46
2022/10/08 00:47:56;;;;;;;;;;;20.80;49.30;;;;;;8362299;28;19970;-46
2022/10/08 00:51:57;;;;;;;;;;;20.80;49.30;;;;;;8363189;28;19917;-46
2022/10/08 00:55:57;;;;;;;;;;;20.70;49.20;;;;;;8362653;28;20427;-46
2022/10/08 00:59:59;;;;;;;;;;;20.70;49.30;;;;;;8362062;28;19917;-45
2022/10/08 01:04:04;;;;;;;;;;;20.70;49.30;;;;;;8361124;28;19931;-44
2022/10/08 01:08:16;;;;;;;;;;;20.70;49.30;;;;;;8362392;28;20262;-45
2022/10/08 01:12:36;;;;;;;;;;;20.70;49.30;;;;;;8362251;28;20011;-43
2022/10/08 01:16:53;;;;;;;;;;;20.70;49.30;;;;;;8368787;28;20011;-44
2022/10/08 01:21:13;;;;;;;;;;;20.70;49.30;;;;;;8367805;28;19917;-45
2022/10/08 01:25:32;;;;;;;;;;;20.70;49.30;;;;;;8368098;28;20271;-44
2022/10/08 01:29:38;;;;;;;;;;;20.70;50.20;;;;;;8368076;28;19923;-44
2022/10/08 01:33:46;;;;;;;;;;;20.60;50.20;;;;;;8367981;28;20050;-44
2022/10/08 01:37:48;;;;;;;;;;;20.60;49.90;;;;;;8366682;28;19921;-44
2022/10/08 01:41:50;;;;;;;;;;;20.70;49.90;;;;;;8361990;28;20328;-45
2022/10/08 01:45:55;;;;;;;;;;;20.70;49.60;;;;;;8364648;28;19984;-43
2022/10/08 01:50:01;;;;;;;;;;;20.70;49.50;;;;;;8363667;28;19916;-46
2022/10/08 01:54:03;;;;;;;;;;;20.70;49.60;;;;;;8362987;28;19917;-47
2022/10/08 01:58:15;;;;;;;;;;;20.70;50.50;;;;;;8360301;28;19917;-44
2022/10/08 02:02:16;;;;;;;;;;;20.70;50.60;;;;;;8366709;28;19917;-44
2022/10/08 02:06:16;;;;;;;;;;;20.70;50.70;;;;;;8366239;28;19933;-44
2022/10/08 02:10:18;;;;;;;;;;;20.70;50.70;;;;;;8366656;28;20401;-45
2022/10/08 02:14:20;;;;;;;;;;;20.70;50.60;;;;;;8366544;28;20385;-44
2022/10/08 02:18:41;;;;;;;;;;;20.70;50.60;;;;;;8365951;28;19917;-45
2022/10/08 02:22:50;;;;;;;;;;;20.70;50.50;;;;;;8355616;28;20354;-46
2022/10/08 02:26:53;;;;;;;;;;;20.70;50.50;;;;;;8365138;28;20339;-44
2022/10/08 02:30:57;;;;;;;;;;;20.70;50.50;;;;;;8366095;28;19917;-45
2022/10/08 02:35:01;;;;;;;;;;;20.70;50.50;;;;;;8365923;28;20319;-44
2022/10/08 02:39:03;;;;;;;;;;;20.70;50.50;;;;;;8365388;28;19991;-45
2022/10/08 02:43:06;;;;;;;;;;;20.70;50.50;;;;;;8366297;28;19963;-44
2022/10/08 02:47:09;;;;;;;;;;;20.70;50.50;;;;;;8365898;28;20396;-46
2022/10/08 02:51:11;;;;;;;;;;;20.70;50.50;;;;;;8364853;28;19917;-45
2022/10/08 02:55:21;;;;;;;;;;;20.70;50.50;;;;;;8363978;28;20009;-45
2022/10/08 02:59:22;;;;;;;;;;;20.70;50.40;;;;;;8359028;28;20331;-46
2022/10/08 03:03:33;;;;;;;;;;;20.70;50.60;;;;;;8364514;28;19959;-45
2022/10/08 03:07:33;;;;;;;;;;;20.70;50.50;;;;;;8333083;28;19917;-44
2022/10/08 03:11:34;;;;;;;;;;;20.70;50.60;;;;;;8365348;28;19970;-44
2022/10/08 03:15:36;;;;;;;;;;;20.70;50.40;;;;;;8364408;28;19995;-44
2022/10/08 03:19:36;;;;;;;;;;;20.70;50.30;;;;;;8364830;28;20008;-44
2022/10/08 03:23:36;;;;;;;;;;;20.70;50.20;;;;;;8364347;28;19936;-45
2022/10/08 03:27:37;;;;;;;;;;;20.70;50.10;;;;;;8344327;28;20016;-44
2022/10/08 03:31:38;;;;;;;;;;;20.70;50.60;;;;;;8358343;28;19936;-44
2022/10/08 03:35:43;;;;;;;;;;;20.70;50.30;;;;;;8363463;28;19943;-44
2022/10/08 03:39:43;;;;;;;;;;;20.70;50.20;;;;;;8363396;28;20377;-44
2022/10/08 03:43:44;;;;;;;;;;;20.70;50.20;;;;;;8363888;28;19921;-44
2022/10/08 03:47:49;;;;;;;;;;;20.70;50.00;;;;;;8363708;28;19920;-43
2022/10/08 03:51:49;;;;;;;;;;;20.70;50.00;;;;;;8363973;28;19924;-46
2022/10/08 03:55:50;;;;;;;;;;;20.70;50.20;;;;;;8363506;28;20008;-47
2022/10/08 03:59:50;;;;;;;;;;;20.70;50.30;;;;;;8362829;28;19940;-45
2022/10/08 04:03:51;;;;;;;;;;;20.70;50.00;;;;;;8363260;28;19921;-45
2022/10/08 04:07:51;;;;;;;;;;;20.70;50.10;;;;;;8362670;28;19912;-44
2022/10/08 04:11:52;;;;;;;;;;;20.70;50.00;;;;;;8363098;28;19971;-45
2022/10/08 04:15:58;;;;;;;;;;;20.80;50.20;;;;;;8363764;28;19916;-45
2022/10/08 04:19:58;;;;;;;;;;;20.80;50.00;;;;;;8363568;28;19948;-46
2022/10/08 04:23:59;;;;;;;;;;;20.80;50.00;;;;;;8362692;28;19921;-46
2022/10/08 04:27:59;;;;;;;;;;;20.80;50.00;;;;;;8363547;28;19940;-46
2022/10/08 04:31:59;;;;;;;;;;;20.80;50.00;;;;;;8363054;28;19916;-45
2022/10/08 04:36:00;;;;;;;;;;;20.70;50.00;;;;;;8362444;28;19921;-45
2022/10/08 04:40:01;;;;;;;;;;;20.80;50.00;;;;;;8362999;28;19955;-45
2022/10/08 04:44:01;;;;;;;;;;;20.80;50.00;;;;;;8363013;28;19967;-45
2022/10/08 04:48:02;;;;;;;;;;;20.70;50.00;;;;;;8363664;28;20451;-44
2022/10/08 04:52:02;;;;;;;;;;;20.80;50.10;;;;;;8369175;28;20290;-44
2022/10/08 04:56:11;;;;;;;;;;;20.80;50.00;;;;;;8369246;28;19917;-43
2022/10/08 05:00:11;;;;;;;;;;;20.80;50.10;;;;;;8368498;28;20286;-45
2022/10/08 05:04:12;;;;;;;;;;;20.70;50.20;;;;;;8368968;28;19927;-45
2022/10/08 05:08:12;;;;;;;;;;;20.70;50.10;;;;;;8368941;28;19913;-45
2022/10/08 05:12:13;;;;;;;;;;;20.80;50.30;;;;;;8368333;28;19917;-45
2022/10/08 05:16:13;;;;;;;;;;;20.70;50.60;;;;;;8368473;28;19917;-43
2022/10/08 05:20:14;;;;;;;;;;;20.80;50.90;;;;;;8368348;28;19972;-44
2022/10/08 05:24:14;;;;;;;;;;;20.80;50.30;;;;;;8367552;28;20271;-45
2022/10/08 05:28:15;;;;;;;;;;;20.80;50.20;;;;;;8368642;28;19919;-44
2022/10/08 05:32:15;;;;;;;;;;;20.80;50.60;;;;;;8368018;28;19970;-45
2022/10/08 05:36:18;;;;;;;;;;;20.70;50.20;;;;;;8367315;28;20282;-44
2022/10/08 05:40:19;;;;;;;;;;;20.70;50.20;;;;;;8367673;28;19921;-44
2022/10/08 05:44:19;;;;;;;;;;;20.80;50.30;;;;;;8367357;28;19967;-45
2022/10/08 05:48:20;;;;;;;;;;;20.80;50.50;;;;;;8367195;28;19959;-47
2022/10/08 05:52:20;;;;;;;;;;;20.70;50.60;;;;;;8367225;28;19917;-46
2022/10/08 05:56:22;;;;;;;;;;;20.80;50.40;;;;;;8366916;28;20405;-45
2022/10/08 06:00:22;;;;;;;;;;;20.80;50.30;;;;;;8364950;28;19924;-46
2022/10/08 06:04:23;;;;;;;;;;;20.70;50.50;;;;;;8367239;28;19921;-43
2022/10/08 06:08:23;;;;;;;;;;;20.80;50.60;;;;;;8366597;28;19998;-43
2022/10/08 06:12:24;;;;;;;;;;;20.70;50.80;;;;;;8366202;28;20004;-44
2022/10/08 06:16:25;;;;;;;;;;;20.70;50.60;;;;;;8366824;28;19917;-44
2022/10/08 06:20:25;;;;;;;;;;;20.70;50.50;;;;;;8366267;28;19970;-45
2022/10/08 06:24:26;;;;;;;;;;;20.70;51.00;;;;;;8365881;28;20378;-45
2022/10/08 06:28:26;;;;;;;;;;;20.70;51.40;;;;;;8366422;28;20386;-45
2022/10/08 06:32:27;;;;;;;;;;;20.70;50.70;;;;;;8365825;28;19927;-45
2022/10/08 06:36:27;;;;;;;;;;;20.70;50.70;;;;;;8365271;28;19917;-43
2022/10/08 06:40:31;;;;;;;;;;;20.70;50.70;;;;;;8363159;28;19978;-45
2022/10/08 06:44:32;;;;;;;;;;;20.70;50.70;;;;;;8362037;28;19924;-44
2022/10/08 06:48:33;;;;;;;;;;;20.60;51.10;;;;;;8359380;28;19924;-43
2022/10/08 06:52:33;;;;;;;;;;;20.60;51.20;;;;;;8362804;28;19916;-43
2022/10/08 06:56:34;;;;;;;;;;;20.70;51.20;;;;;;8362031;28;19921;-44
2022/10/08 07:00:35;;;;;;;;;;;20.70;51.70;;;;;;8363901;28;20263;-45
2022/10/08 07:04:36;;;;;;;;;;;20.70;51.40;;;;;;8364060;28;19921;-45
2022/10/08 07:08:36;;;;;;;;;;;20.60;51.00;;;;;;8364812;28;20327;-46
2022/10/08 07:12:37;;;;;;;;;;;20.60;51.00;;;;;;8363974;28;20008;-45
2022/10/08 07:16:37;;;;;;;;;;;20.60;50.90;;;;;;8364846;28;19921;-44
2022/10/08 07:20:38;;;;;;;;;;;20.60;50.90;;;;;;8361221;28;20317;-44
2022/10/08 07:24:38;;;;;;;;;;;20.60;51.40;;;;;;8361648;28;20354;-43
2022/10/08 07:28:41;;;;;;;;;;;20.60;51.60;;;;;;8364259;28;20381;-43
2022/10/08 07:32:41;;;;;;;;;;;20.60;51.30;;;;;;8363747;28;20397;-44
2022/10/08 07:36:42;;;;;;;;;;;20.60;51.00;;;;;;8362442;28;20019;-45
2022/10/08 07:40:43;;;;;;;;;;;20.60;50.90;;;;;;8356545;28;19921;-45
2022/10/08 07:44:43;;;;;;;;;;;20.60;51.20;;;;;;8360911;28;20007;-46
2022/10/08 07:48:44;;;;;;;;;;;20.70;51.90;;;;;;8363676;28;20401;-45
2022/10/08 07:52:44;;;;;;;;;;;20.70;52.00;;;;;;8362904;28;19917;-48
2022/10/08 07:56:45;;;;;;;;;;;20.70;51.80;;;;;;8360919;28;20004;-44
2022/10/08 08:00:45;;;;;;;;;;;20.70;51.70;;;;;;8363324;28;19924;-43
2022/10/08 08:04:46;;;;;;;;;;;20.80;52.00;;;;;;8361767;28;19929;-45
2022/10/08 08:08:46;;;;;;;;;;;20.70;52.00;;;;;;8362885;28;19925;-45
2022/10/08 08:12:47;;;;;;;;;;;20.60;51.70;;;;;;8363413;28;19927;-45
2022/10/08 08:16:47;;;;;;;;;;;20.60;51.50;;;;;;8362935;28;19917;-44
2022/10/08 08:20:48;;;;;;;;;;;20.60;51.40;;;;;;8362541;28;19921;-44
2022/10/08 08:24:48;;;;;;;;;;;20.60;51.30;;;;;;8367409;28;19921;-44
2022/10/08 08:28:49;;;;;;;;;;;20.60;51.30;;;;;;8369976;28;19916;-43
2022/10/08 08:32:50;;;;;;;;;;;20.70;51.20;;;;;;8369469;28;20423;-44
2022/10/08 08:36:54;;;;;;;;;;;20.70;51.10;;;;;;8369672;28;20012;-44
2022/10/08 08:40:56;;;;;;;;;;;20.70;51.10;;;;;;8369607;28;20373;-43
2022/10/08 08:45:01;;;;;;;;;;;20.70;51.10;;;;;;8369267;28;19921;-44
2022/10/08 08:49:06;;;;;;;;;;;20.70;51.00;;;;;;8369337;28;19917;-45
2022/10/08 08:53:08;;;;;;;;;;;20.70;51.00;;;;;;8369183;28;19925;-45
2022/10/08 08:57:31;;;;;;;;;;;20.70;50.90;;;;;;8368759;28;19917;-44
2022/10/08 09:01:38;;;;;;;;;;;20.70;50.90;;;;;;8340442;28;20266;-44
2022/10/08 09:05:41;;;;;;;;;;;20.70;50.90;;;;;;8368356;28;19927;-44
2022/10/08 09:09:43;;;;;;;;;;;20.70;50.80;;;;;;8369182;28;19948;-45
2022/10/08 09:13:56;;;;;;;;;;;20.70;50.80;;;;;;8368808;28;19917;-44
2022/10/08 09:18:00;;;;;;;;;;;20.70;50.80;;;;;;8368121;28;19916;-44
2022/10/08 09:22:00;;;;;;;;;;;20.70;50.80;;;;;;8368280;28;20275;-45
2022/10/08 09:26:02;;;;;;;;;;;20.70;51.20;;;;;;8368141;28;19921;-44
2022/10/08 09:30:23;;;;;;;;;;;20.80;50.70;;;;;;8367866;28;19913;-44
2022/10/08 09:34:23;;;;;;;;;;;20.70;50.70;;;;;;8367756;28;20404;-43
2022/10/08 09:38:25;;;;;;;;;;;20.80;50.70;;;;;;8367932;28;19924;-43
2022/10/08 09:42:26;;;;;;;;;;;20.80;50.70;;;;;;8367228;28;20292;-44
2022/10/08 09:46:28;;;;;;;;;;;20.80;50.70;;;;;;8368043;28;19921;-45
2022/10/08 09:50:28;;;;;;;;;;;20.70;50.70;;;;;;8367766;28;20321;-43
2022/10/08 09:54:33;;;;;;;;;;;20.80;50.70;;;;;;8366815;28;19917;-45
2022/10/08 09:58:35;;;;;;;;;;;20.80;50.70;;;;;;8367156;28;19923;-44
2022/10/08 10:02:36;;;;;;;;;;;20.80;50.70;;;;;;8367149;28;19916;-45
2022/10/08 10:06:39;;;;;;;;;;;20.70;50.60;;;;;;8366323;28;20014;-45
2022/10/08 10:10:43;;;;;;;;;;;20.80;50.80;;;;;;8366199;28;20301;-44
2022/10/08 10:14:47;;;;;;;;;;;20.80;50.80;;;;;;8366348;28;19923;-44
2022/10/08 10:18:53;;;;;;;;;;;20.80;50.80;;;;;;8366459;28;19928;-45
2022/10/08 10:22:59;;;;;;;;;;;20.80;50.80;;;;;;8366435;28;19913;-43
2022/10/08 10:27:11;;;;;;;;;;;20.80;50.80;;;;;;8365941;28;20370;-45
2022/10/08 10:31:19;;;;;;;;;;;20.80;50.80;;;;;;8366409;28;19917;-45
2022/10/08 10:35:20;;;;;;;;;;;20.80;50.80;;;;;;8366318;28;20332;-43
2022/10/08 10:39:26;;;;;;;;;;;20.90;50.80;;;;;;8365476;28;19923;-44
2022/10/08 10:43:33;;;;;;;;;;;20.90;51.30;;;;;;8365876;28;19925;-44
2022/10/08 10:47:33;;;;;;;;;;;20.90;50.80;;;;;;8365233;28;19923;-44
2022/10/08 10:51:39;;;;;;;;;;;20.90;50.70;;;;;;8365761;28;19913;-45
2022/10/08 10:55:43;;;;;;;;;;;20.90;50.70;;;;;;8365578;28;19920;-45
2022/10/08 10:59:46;;;;;;;;;;;20.90;50.60;;;;;;8364899;28;19917;-45
2022/10/08 11:03:52;;;;;;;;;;;20.90;50.60;;;;;;8364877;28;19928;-45
2022/10/08 11:08:12;;;;;;;;;;;20.90;50.50;;;;;;8365039;28;19917;-45
2022/10/08 11:12:21;;;;;;;;;;;20.90;50.50;;;;;;8364683;28;20295;-44
2022/10/08 11:16:22;;;;;;;;;;;20.90;50.50;;;;;;8365201;28;20328;-44
2022/10/08 11:20:27;;;;;;;;;;;20.90;50.50;;;;;;8364704;28;19998;-44
2022/10/08 11:24:34;;;;;;;;;;;20.90;50.50;;;;;;8363909;28;19928;-45
2022/10/08 11:28:35;;;;;;;;;;;20.90;50.50;;;;;;8364665;28;20007;-45
2022/10/08 11:32:36;;;;;;;;;;;20.90;50.50;;;;;;8364430;28;20380;-44
2022/10/08 11:36:42;;;;;;;;;;;20.80;50.50;;;;;;8363779;28;19984;-44
2022/10/08 11:40:42;;;;;;;;;;;20.90;50.50;;;;;;8364339;28;19920;-44
2022/10/08 11:44:43;;;;;;;;;;;20.80;50.50;;;;;;8363404;28;20309;-44
2022/10/08 11:48:43;;;;;;;;;;;20.80;50.50;;;;;;8363890;28;19917;-46
2022/10/08 11:52:44;;;;;;;;;;;20.90;50.50;;;;;;8363739;28;19965;-44
2022/10/08 11:56:48;;;;;;;;;;;20.80;50.50;;;;;;8363164;28;19913;-44
2022/10/08 12:00:50;;;;;;;;;;;20.90;50.50;;;;;;8363233;28;19923;-44
2022/10/08 12:04:52;;;;;;;;;;;20.80;50.50;;;;;;8363598;28;19978;-45
2022/10/08 12:08:52;;;;;;;;;;;20.80;50.50;;;;;;8363011;28;19916;-45
2022/10/08 12:12:55;;;;;;;;;;;20.80;50.50;;;;;;8363149;28;19924;-46
2022/10/08 12:17:06;;;;;;;;;;;20.80;50.50;;;;;;8363511;28;19920;-44
2022/10/08 12:21:15;;;;;;;;;;;20.80;50.50;;;;;;8362939;28;19913;-45
2022/10/08 12:25:48;;;;;;;;;;;20.90;50.50;;;;;;8362945;28;20378;-46
2022/10/08 12:29:59;;;;;;;;;;;20.90;50.50;;;;;;8296687;28;19924;-44
2022/10/08 12:34:01;;;;;;;;;;;20.90;50.50;;;;;;8346755;28;20293;-46
2022/10/08 12:38:01;;;;;;;;;;;20.90;50.40;;;;;;8363067;28;19920;-46
2022/10/08 12:42:05;;;;;;;;;;;20.90;50.50;;;;;;8362788;28;19927;-46
2022/10/08 12:46:16;;;;;;;;;;;20.90;50.50;;;;;;8362763;28;20011;-44
2022/10/08 12:50:16;;;;;;;;;;;20.90;50.40;;;;;;8362658;28;19917;-44
2022/10/08 12:54:18;;;;;;;;;;;20.90;50.40;;;;;;8362170;28;19974;-46
2022/10/08 12:58:22;;;;;;;;;;;21.00;50.40;;;;;;8362772;28;20008;-44
2022/10/08 13:02:25;;;;;;;;;;;20.90;50.30;;;;;;8361225;28;19963;-45
2022/10/08 13:06:26;;;;;;;;;;;20.90;50.30;;;;;;8360925;28;19931;-45
2022/10/08 13:10:28;;;;;;;;;;;20.90;50.30;;;;;;8365748;28;19925;-45
2022/10/08 13:14:29;;;;;;;;;;;21.00;50.30;;;;;;8368647;28;19970;-43
2022/10/08 13:18:31;;;;;;;;;;;21.00;50.30;;;;;;8367996;28;20279;-45
2022/10/08 13:22:31;;;;;;;;;;;20.90;50.30;;;;;;8368491;28;19936;-44
2022/10/08 13:26:40;;;;;;;;;;;21.00;50.30;;;;;;8368527;28;19931;-44
2022/10/08 13:30:41;;;;;;;;;;;21.00;50.30;;;;;;8368110;28;20324;-46
2022/10/08 13:34:46;;;;;;;;;;;21.00;50.20;;;;;;8368416;28;19963;-45
2022/10/08 13:38:47;;;;;;;;;;;21.00;50.20;;;;;;8367536;28;20377;-46
2022/10/08 13:42:54;;;;;;;;;;;21.00;50.20;;;;;;8368020;28;19932;-44
2022/10/08 13:46:55;;;;;;;;;;;21.00;50.20;;;;;;8367946;28;19921;-44
2022/10/08 13:50:56;;;;;;;;;;;21.00;50.20;;;;;;8367150;28;19986;-44
2022/10/08 13:54:58;;;;;;;;;;;21.00;50.20;;;;;;8367293;28;20002;-44
2022/10/08 13:58:58;;;;;;;;;;;21.00;50.20;;;;;;8367281;28;19916;-44
2022/10/08 14:02:59;;;;;;;;;;;21.00;50.10;;;;;;8366587;28;19920;-45
2022/10/08 14:07:00;;;;;;;;;;;21.00;50.10;;;;;;8367281;28;19916;-44
2022/10/08 14:11:01;;;;;;;;;;;21.00;50.00;;;;;;8367078;28;20032;-45
2022/10/08 14:15:02;;;;;;;;;;;21.00;50.00;;;;;;8366435;28;21028;-45
2022/10/08 14:19:02;;;;;;;;;;;21.00;50.10;;;;;;8366587;28;19917;-45
2022/10/08 14:23:03;;;;;;;;;;;21.00;50.10;;;;;;8365503;28;19931;-44
2022/10/08 14:27:03;;;;;;;;;;;21.00;50.10;;;;;;8366232;28;19913;-45
2022/10/08 14:31:05;;;;;;;;;;;21.00;50.00;;;;;;8366449;28;19962;-45
2022/10/08 14:35:05;;;;;;;;;;;21.00;50.00;;;;;;8366284;28;19931;-46
2022/10/08 14:39:06;;;;;;;;;;;21.00;50.00;;;;;;8365690;28;19917;-44
2022/10/08 14:43:06;;;;;;;;;;;21.00;50.00;;;;;;8366349;28;19955;-45
2022/10/08 14:47:07;;;;;;;;;;;21.00;50.00;;;;;;8366004;28;19920;-45
2022/10/08 14:51:07;;;;;;;;;;;21.00;50.00;;;;;;8365374;28;19964;-45
2022/10/08 14:55:08;;;;;;;;;;;21.00;49.90;;;;;;8365767;28;19921;-44
2022/10/08 14:59:09;;;;;;;;;;;21.10;49.90;;;;;;8365407;28;19995;-46
2022/10/08 15:03:10;;;;;;;;;;;21.00;49.80;;;;;;8365254;28;19923;-45
2022/10/08 15:07:10;;;;;;;;;;;21.00;49.80;;;;;;8365416;28;20263;-45
2022/10/08 15:11:11;;;;;;;;;;;21.00;49.90;;;;;;8365134;28;20015;-44
2022/10/08 15:15:11;;;;;;;;;;;21.00;49.80;;;;;;8364509;28;19917;-46
2022/10/08 15:19:12;;;;;;;;;;;21.00;49.80;;;;;;8364804;28;19963;-45
2022/10/08 15:23:12;;;;;;;;;;;21.00;49.80;;;;;;8364722;28;19997;-45
2022/10/08 15:27:12;;;;;;;;;;;21.00;49.80;;;;;;8364452;28;20439;-45
2022/10/08 15:31:14;;;;;;;;;;;21.10;49.90;;;;;;8364331;28;19917;-45
2022/10/08 15:35:16;;;;;;;;;;;21.10;49.80;;;;;;8364451;28;19917;-45
2022/10/08 15:39:17;;;;;;;;;;;21.00;49.80;;;;;;8363763;28;19940;-46
2022/10/08 15:43:18;;;;;;;;;;;21.00;49.80;;;;;;8363937;28;20381;-46
2022/10/08 15:47:18;;;;;;;;;;;21.00;49.80;;;;;;8364413;28;19984;-45
2022/10/08 15:51:19;;;;;;;;;;;21.00;49.80;;;;;;8363435;28;19924;-44
2022/10/08 15:55:20;;;;;;;;;;;21.00;49.80;;;;;;8363723;28;19924;-46
2022/10/08 15:59:20;;;;;;;;;;;21.00;49.80;;;;;;8363865;28;19913;-44
2022/10/08 16:03:21;;;;;;;;;;;21.00;49.80;;;;;;8363353;28;20409;-44
2022/10/08 16:07:21;;;;;;;;;;;21.00;49.80;;;;;;8362015;28;20404;-45
2022/10/08 16:11:23;;;;;;;;;;;21.00;49.80;;;;;;8362319;28;19947;-44
2022/10/08 16:15:24;;;;;;;;;;;21.00;49.80;;;;;;8362862;28;19916;-44
2022/10/08 16:19:25;;;;;;;;;;;21.00;49.70;;;;;;8363221;28;19962;-44
2022/10/08 16:23:25;;;;;;;;;;;21.00;49.80;;;;;;8363362;28;19925;-44
2022/10/08 16:27:26;;;;;;;;;;;21.00;49.80;;;;;;8362772;28;19923;-44
2022/10/08 16:31:28;;;;;;;;;;;21.00;49.70;;;;;;8363109;28;19968;-44
2022/10/08 16:35:28;;;;;;;;;;;21.00;49.80;;;;;;8363131;28;19920;-44
2022/10/08 16:39:28;;;;;;;;;;;21.00;49.80;;;;;;8362364;28;20376;-44
2022/10/08 16:43:29;;;;;;;;;;;21.00;49.90;;;;;;8363536;28;19990;-44
2022/10/08 16:47:29;;;;;;;;;;;21.00;49.90;;;;;;8369529;28;20476;-46
2022/10/08 16:51:31;;;;;;;;;;;21.00;49.90;;;;;;8369269;28;19923;-45
2022/10/08 16:55:33;;;;;;;;;;;21.00;49.90;;;;;;8369135;28;19916;-44
2022/10/08 16:59:33;;;;;;;;;;;21.00;49.90;;;;;;8369345;28;19943;-44
2022/10/08 17:03:34;;;;;;;;;;;21.00;49.90;;;;;;8368998;28;19943;-45
2022/10/08 17:07:34;;;;;;;;;;;21.00;49.90;;;;;;8368919;28;20001;-44
2022/10/08 17:11:35;;;;;;;;;;;21.00;49.90;;;;;;8368984;28;19986;-44
2022/10/08 17:15:36;;;;;;;;;;;21.00;49.90;;;;;;8368282;28;20320;-44
2022/10/08 17:19:36;;;;;;;;;;;21.00;49.90;;;;;;8368497;28;19917;-44
2022/10/08 17:23:37;;;;;;;;;;;21.00;49.90;;;;;;8368765;28;20456;-44
2022/10/08 17:27:37;;;;;;;;;;;21.00;49.90;;;;;;8368460;28;20100;-44
2022/10/08 17:31:38;;;;;;;;;;;21.00;49.90;;;;;;8368118;28;19920;-44
2022/10/08 17:35:39;;;;;;;;;;;21.00;50.00;;;;;;8367698;28;19917;-45
2022/10/08 17:39:39;;;;;;;;;;;20.90;49.90;;;;;;8367681;28;19917;-44
2022/10/08 17:43:40;;;;;;;;;;;20.90;49.90;;;;;;8367927;28;19987;-44
2022/10/08 17:47:40;;;;;;;;;;;20.90;49.90;;;;;;8367361;28;20426;-43
2022/10/08 17:51:41;;;;;;;;;;;20.90;49.90;;;;;;8367481;28;19924;-44
2022/10/08 17:55:41;;;;;;;;;;;21.00;49.90;;;;;;8365992;28;19977;-45
2022/10/08 17:59:42;;;;;;;;;;;20.90;49.80;;;;;;8366874;28;19917;-43
2022/10/08 18:03:47;;;;;;;;;;;20.90;49.80;;;;;;8367565;28;20271;-45
2022/10/08 18:07:48;;;;;;;;;;;20.90;49.80;;;;;;8367268;28;19952;-44
2022/10/08 18:11:50;;;;;;;;;;;20.90;49.80;;;;;;8366604;28;19932;-45
2022/10/08 18:15:51;;;;;;;;;;;20.90;49.80;;;;;;8366699;28;19947;-44
2022/10/08 18:19:51;;;;;;;;;;;20.90;49.80;;;;;;8366502;28;20309;-44
2022/10/08 18:23:52;;;;;;;;;;;20.90;49.80;;;;;;8366232;28;19920;-44
2022/10/08 18:27:55;;;;;;;;;;;20.90;49.80;;;;;;8366382;28;20388;-44
2022/10/08 18:31:56;;;;;;;;;;;20.90;49.80;;;;;;8366313;28;19921;-44
2022/10/08 18:35:56;;;;;;;;;;;20.90;49.80;;;;;;8365984;28;20270;-45
2022/10/08 18:39:57;;;;;;;;;;;20.90;49.80;;;;;;8365953;28;19920;-44
2022/10/08 18:44:00;;;;;;;;;;;20.90;49.90;;;;;;8366415;28;19951;-44
2022/10/08 18:48:00;;;;;;;;;;;20.90;49.80;;;;;;8365356;28;19924;-44
2022/10/08 18:52:01;;;;;;;;;;;20.90;49.70;;;;;;8365610;28;19923;-44
2022/10/08 18:56:02;;;;;;;;;;;20.90;49.80;;;;;;8365626;28;19932;-46
2022/10/08 19:00:03;;;;;;;;;;;20.80;49.80;;;;;;8365064;28;19921;-44
2022/10/08 19:04:05;;;;;;;;;;;20.80;49.80;;;;;;8365335;28;19921;-44
2022/10/08 19:08:06;;;;;;;;;;;20.80;49.80;;;;;;8363668;28;19971;-46
2022/10/08 19:12:07;;;;;;;;;;;20.80;49.80;;;;;;8364766;28;19919;-44
2022/10/08 19:16:12;;;;;;;;;;;20.80;49.70;;;;;;8364837;28;19963;-44
2022/10/08 19:20:12;;;;;;;;;;;20.80;49.70;;;;;;8364810;28;19952;-44
2022/10/08 19:24:14;;;;;;;;;;;20.80;49.60;;;;;;8364384;28;20304;-46
2022/10/08 19:28:15;;;;;;;;;;;20.80;49.60;;;;;;8364805;28;19917;-45
2022/10/08 19:32:15;;;;;;;;;;;20.80;49.60;;;;;;8364491;28;19924;-44
2022/10/08 19:36:16;;;;;;;;;;;20.80;49.60;;;;;;8363962;28;19917;-45
2022/10/08 19:40:17;;;;;;;;;;;20.80;49.50;;;;;;8364126;28;19925;-44
2022/10/08 19:44:17;;;;;;;;;;;20.80;49.50;;;;;;8364283;28;19970;-46
2022/10/08 19:48:18;;;;;;;;;;;20.80;49.40;;;;;;8363575;28;19956;-44
2022/10/08 19:52:20;;;;;;;;;;;20.80;49.40;;;;;;8363232;28;20351;-46
2022/10/08 19:56:21;;;;;;;;;;;20.80;49.50;;;;;;8363791;28;19919;-45
2022/10/08 20:00:21;;;;;;;;;;;20.80;49.50;;;;;;8363346;28;19917;-44
2022/10/08 20:04:22;;;;;;;;;;;20.80;49.50;;;;;;8363908;28;19921;-46
2022/10/08 20:08:23;;;;;;;;;;;20.70;49.40;;;;;;8363659;28;19924;-42
2022/10/08 20:12:23;;;;;;;;;;;20.70;49.50;;;;;;8363023;28;19924;-43
2022/10/08 20:16:28;;;;;;;;;;;20.70;49.40;;;;;;8363728;28;20402;-44
2022/10/08 20:20:29;;;;;;;;;;;20.70;49.50;;;;;;8362545;28;19921;-43
2022/10/08 20:24:29;;;;;;;;;;;20.70;49.50;;;;;;8362994;28;19963;-45
2022/10/08 20:28:30;;;;;;;;;;;20.70;49.40;;;;;;8363276;28;19924;-44
2022/10/08 20:32:30;;;;;;;;;;;20.70;49.40;;;;;;8363372;28;19920;-46
2022/10/08 20:36:32;;;;;;;;;;;20.70;49.40;;;;;;8362580;28;19917;-45
2022/10/08 20:40:32;;;;;;;;;;;20.70;49.40;;;;;;8362997;28;19927;-45
2022/10/08 20:44:33;;;;;;;;;;;20.70;49.40;;;;;;8363060;28;19925;-46
2022/10/08 20:48:34;;;;;;;;;;;20.70;49.40;;;;;;8362387;28;20289;-43
2022/10/08 20:52:34;;;;;;;;;;;20.70;49.30;;;;;;8362858;28;19917;-45
2022/10/08 20:56:35;;;;;;;;;;;20.70;49.30;;;;;;8362865;28;20332;-45
2022/10/08 21:00:36;;;;;;;;;;;20.70;49.30;;;;;;8362411;28;19964;-44
2022/10/08 21:04:36;;;;;;;;;;;20.70;49.30;;;;;;8362819;28;19924;-44
2022/10/08 21:08:38;;;;;;;;;;;20.70;49.30;;;;;;8362787;28;19916;-45
2022/10/08 21:12:38;;;;;;;;;;;20.70;49.30;;;;;;8362688;28;19924;-44
2022/10/08 21:16:38;;;;;;;;;;;20.70;49.30;;;;;;8362428;28;20373;-46
2022/10/08 21:20:39;;;;;;;;;;;20.60;49.30;;;;;;8361971;28;19917;-44
2022/10/08 21:24:39;;;;;;;;;;;20.60;49.30;;;;;;8362444;28;20008;-43
2022/10/08 21:28:41;;;;;;;;;;;20.60;49.30;;;;;;8362395;28;19928;-42
2022/10/08 21:32:41;;;;;;;;;;;20.60;49.30;;;;;;8366749;28;19970;-43
2022/10/08 21:36:43;;;;;;;;;;;20.60;49.30;;;;;;8368428;28;20428;-45
2022/10/08 21:40:43;;;;;;;;;;;20.60;49.30;;;;;;8367781;28;19947;-43
2022/10/08 21:44:44;;;;;;;;;;;20.60;49.20;;;;;;8367546;28;20332;-44
2022/10/08 21:48:45;;;;;;;;;;;20.60;49.20;;;;;;8367663;28;19917;-45
2022/10/08 21:52:46;;;;;;;;;;;20.60;49.30;;;;;;8367777;28;20266;-44
2022/10/08 21:56:46;;;;;;;;;;;20.60;49.70;;;;;;8367080;28;19956;-44
2022/10/08 22:00:46;;;;;;;;;;;20.60;49.20;;;;;;8366983;28;19921;-44
2022/10/08 22:04:47;;;;;;;;;;;20.60;49.20;;;;;;8367690;28;19928;-44
2022/10/08 22:08:47;;;;;;;;;;;20.60;49.30;;;;;;8365603;28;19959;-46
2022/10/08 22:12:48;;;;;;;;;;;20.60;49.30;;;;;;8366854;28;19927;-44
2022/10/08 22:16:49;;;;;;;;;;;20.60;49.20;;;;;;8366839;28;20340;-44
2022/10/08 22:20:50;;;;;;;;;;;20.60;49.70;;;;;;8366683;28;20035;-43
2022/10/08 22:24:50;;;;;;;;;;;20.50;49.20;;;;;;8366774;28;19925;-42
2022/10/08 22:28:50;;;;;;;;;;;20.50;49.20;;;;;;8366408;28;19917;-43
2022/10/08 22:32:51;;;;;;;;;;;20.50;49.20;;;;;;8366004;28;19999;-43
2022/10/08 22:36:51;;;;;;;;;;;20.50;49.20;;;;;;8366565;28;20301;-42
2022/10/08 22:40:52;;;;;;;;;;;20.50;49.10;;;;;;8366179;28;19927;-43
2022/10/08 22:44:52;;;;;;;;;;;20.50;49.20;;;;;;8364926;28;19924;-45
2022/10/08 22:48:57;;;;;;;;;;;20.50;49.20;;;;;;8365765;28;20407;-44
2022/10/08 22:52:57;;;;;;;;;;;20.50;49.10;;;;;;8365892;28;19921;-45
2022/10/08 22:56:57;;;;;;;;;;;20.50;49.20;;;;;;8365273;28;19931;-45
2022/10/08 23:00:59;;;;;;;;;;;20.50;49.10;;;;;;8365777;28;19917;-44
2022/10/08 23:04:59;;;;;;;;;;;20.40;49.10;;;;;;8365405;28;20333;-44
2022/10/08 23:09:04;;;;;;;;;;;20.40;49.10;;;;;;8365115;28;19924;-45
2022/10/08 23:13:05;;;;;;;;;;;20.40;49.10;;;;;;8365590;28;19944;-45
2022/10/08 23:17:05;;;;;;;;;;;20.40;49.10;;;;;;8365368;28;19917;-44
2022/10/08 23:21:07;;;;;;;;;;;20.40;49.10;;;;;;8364433;28;19912;-46
2022/10/08 23:25:08;;;;;;;;;;;20.40;49.10;;;;;;8364691;28;19971;-43
2022/10/08 23:29:09;;;;;;;;;;;20.40;49.10;;;;;;8364565;28;19927;-45